Time,TemperatureF,DewpointF,PressureIn,WindDirection,WindDirectionDegrees,WindSpeedMPH,WindSpeedGustMPH,Humidity,HourlyPrecipIn,Conditions,Clouds,dailyrainin,SoftwareType,DateUTC
2013-03-02 00:07:00,43.8,33.0,30.30,SW,222,4.0,4.0,65,0.00,,,0.00,weatherlink.com 1.10,2013-03-02 08:07:00,
2013-03-02 00:22:00,43.5,33.0,30.30,SW,222,1.0,3.0,66,0.00,,,0.00,weatherlink.com 1.10,2013-03-02 08:22:00,
2013-03-02 00:37:00,43.0,32.0,30.29,SSW,207,1.0,4.0,66,0.00,,,0.00,weatherlink.com 1.10,2013-03-02 08:37:00,
2013-03-02 00:52:00,42.7,32.0,30.29,SSW,207,2.0,4.0,67,0.00,,,0.00,weatherlink.com 1.10,2013-03-02 08:52:00,
2013-03-02 01:07:00,42.8,32.0,30.29,SSW,200,0.0,4.0,66,0.00,,,0.00,weatherlink.com 1.10,2013-03-02 09:07:00,
2013-03-02 01:22:00,43.1,33.0,30.29,SSE,150,4.0,7.0,67,0.00,,,0.00,weatherlink.com 1.10,2013-03-02 09:22:00,
2013-03-02 01:37:00,42.9,33.0,30.28,SSE,148,1.0,5.0,68,0.00,,,0.00,weatherlink.com 1.10,2013-03-02 09:37:00,
2013-03-02 01:52:00,42.5,33.0,30.28,SSE,147,2.0,6.0,69,0.00,,,0.00,weatherlink.com 1.10,2013-03-02 09:52:00,
2013-03-02 02:07:00,42.7,33.0,30.27,SE,142,4.0,9.0,69,0.00,,,0.00,weatherlink.com 1.10,2013-03-02 10:07:00,
2013-03-02 02:23:00,42.2,33.0,30.27,SE,142,1.0,6.0,70,0.00,,,0.00,weatherlink.com 1.10,2013-03-02 10:23:00,
2013-03-02 02:38:00,42.3,33.0,30.25,SSE,151,4.0,6.0,70,0.00,,,0.00,weatherlink.com 1.10,2013-03-02 10:38:00,
2013-03-02 03:08:00,41.9,33.0,30.23,SSE,148,5.0,8.0,71,0.00,,,0.00,weatherlink.com 1.10,2013-03-02 11:08:00,
2013-03-02 03:23:00,41.5,33.0,30.23,SSE,148,5.0,10.0,72,0.00,,,0.00,weatherlink.com 1.10,2013-03-02 11:23:00,
2013-03-02 03:38:00,41.3,33.0,30.23,SSE,159,6.0,8.0,72,0.00,,,0.00,weatherlink.com 1.10,2013-03-02 11:38:00,
2013-03-02 03:53:00,41.3,33.0,30.22,South,180,3.0,10.0,71,0.00,,,0.00,weatherlink.com 1.10,2013-03-02 11:53:00,
2013-03-02 04:08:00,41.3,33.0,30.23,SSW,192,3.0,8.0,71,0.00,,,0.00,weatherlink.com 1.10,2013-03-02 12:08:00,
2013-03-02 04:23:00,40.8,32.0,30.22,South,187,4.0,10.0,71,0.00,,,0.00,weatherlink.com 1.10,2013-03-02 12:23:00,
2013-03-02 04:38:00,40.4,32.0,30.22,SSE,165,4.0,12.0,71,0.00,,,0.00,weatherlink.com 1.10,2013-03-02 12:38:00,
2013-03-02 04:53:00,39.9,32.0,30.22,SE,130,7.0,11.0,72,0.00,,,0.00,weatherlink.com 1.10,2013-03-02 12:53:00,
2013-03-02 05:08:00,39.8,32.0,30.22,South,173,4.0,9.0,73,0.00,,,0.00,weatherlink.com 1.10,2013-03-02 13:08:00,
2013-03-02 05:23:00,39.8,32.0,30.22,SSE,155,6.0,12.0,73,0.00,,,0.00,weatherlink.com 1.10,2013-03-02 13:23:00,
2013-03-02 05:38:00,39.7,32.0,30.21,SSW,196,4.0,13.0,74,0.00,,,0.00,weatherlink.com 1.10,2013-03-02 13:38:00,
2013-03-02 05:53:00,39.8,32.0,30.21,South,182,5.0,13.0,74,0.00,,,0.00,weatherlink.com 1.10,2013-03-02 13:53:00,
2013-03-02 06:08:00,40.1,32.0,30.20,South,183,5.0,13.0,73,0.00,,,0.00,weatherlink.com 1.10,2013-03-02 14:08:00,
2013-03-02 06:23:00,40.2,32.0,30.20,South,171,6.0,12.0,73,0.00,,,0.00,weatherlink.com 1.10,2013-03-02 14:23:00,
2013-03-02 06:38:00,40.5,32.0,30.20,SSE,155,8.0,13.0,73,0.00,,,0.00,weatherlink.com 1.10,2013-03-02 14:38:00,
2013-03-02 06:53:00,39.9,32.0,30.20,SE,129,4.0,9.0,74,0.00,,,0.00,weatherlink.com 1.10,2013-03-02 14:53:00,
2013-03-02 07:08:00,40.2,33.0,30.19,ESE,123,4.0,9.0,74,0.00,,,0.00,weatherlink.com 1.10,2013-03-02 15:08:00,
2013-03-02 07:23:00,40.6,33.0,30.20,SE,133,3.0,6.0,73,0.00,,,0.00,weatherlink.com 1.10,2013-03-02 15:23:00,
2013-03-02 07:38:00,40.8,33.0,30.19,ESE,120,7.0,9.0,73,0.00,,,0.00,weatherlink.com 1.10,2013-03-02 15:38:00,
2013-03-02 07:53:00,41.6,33.0,30.19,SE,143,4.0,9.0,71,0.00,,,0.00,weatherlink.com 1.10,2013-03-02 15:53:00,
2013-03-02 08:08:00,41.9,33.0,30.18,SE,130,4.0,8.0,71,0.00,,,0.00,weatherlink.com 1.10,2013-03-02 16:08:00,
2013-03-02 08:23:00,42.5,33.0,30.18,ESE,123,4.0,10.0,70,0.00,,,0.00,weatherlink.com 1.10,2013-03-02 16:23:00,
2013-03-02 08:38:00,42.9,33.0,30.18,ESE,119,7.0,10.0,69,0.00,,,0.00,weatherlink.com 1.10,2013-03-02 16:38:00,
2013-03-02 08:53:00,43.3,33.0,30.18,ESE,117,9.0,11.0,68,0.00,,,0.00,weatherlink.com 1.10,2013-03-02 16:53:00,
2013-03-02 09:08:00,43.6,34.0,30.18,ESE,103,12.0,12.0,68,0.00,,,0.00,weatherlink.com 1.10,2013-03-02 17:08:00,
2013-03-02 09:23:00,44.0,34.0,30.18,South,178,5.0,13.0,67,0.00,,,0.00,weatherlink.com 1.10,2013-03-02 17:23:00,
2013-03-02 09:38:00,44.8,34.0,30.18,South,180,4.0,10.0,66,0.00,,,0.00,weatherlink.com 1.10,2013-03-02 17:38:00,
2013-03-02 09:53:00,45.9,34.0,30.18,SE,144,2.0,12.0,63,0.00,,,0.00,weatherlink.com 1.10,2013-03-02 17:53:00,
2013-03-02 10:09:00,47.1,34.0,30.18,SSE,159,3.0,9.0,61,0.00,,,0.00,weatherlink.com 1.10,2013-03-02 18:09:00,
2013-03-02 10:24:00,47.9,34.0,30.17,SSE,156,5.0,8.0,60,0.00,,,0.00,weatherlink.com 1.10,2013-03-02 18:24:00,
2013-03-02 10:39:00,48.7,35.0,30.17,South,178,4.0,9.0,59,0.00,,,0.00,weatherlink.com 1.10,2013-03-02 18:39:00,
2013-03-02 10:54:00,49.8,34.0,30.16,South,171,4.0,11.0,56,0.00,,,0.00,weatherlink.com 1.10,2013-03-02 18:54:00,
2013-03-02 11:09:00,51.4,35.0,30.16,South,174,4.0,11.0,53,0.00,,,0.00,weatherlink.com 1.10,2013-03-02 19:09:00,
2013-03-02 11:24:00,52.0,34.0,30.16,SSW,192,7.0,11.0,51,0.00,,,0.00,weatherlink.com 1.10,2013-03-02 19:24:00,
2013-03-02 11:39:00,51.9,34.0,30.15,SSE,159,5.0,11.0,51,0.00,,,0.00,weatherlink.com 1.10,2013-03-02 19:39:00,
2013-03-02 11:54:00,52.2,35.0,30.14,SE,146,1.0,9.0,52,0.00,,,0.00,weatherlink.com 1.10,2013-03-02 19:54:00,
2013-03-02 12:09:00,53.0,35.0,30.14,SSE,165,2.0,7.0,50,0.00,,,0.00,weatherlink.com 1.10,2013-03-02 20:09:00,
2013-03-02 12:24:00,54.0,34.0,30.13,South,170,3.0,7.0,47,0.00,,,0.00,weatherlink.com 1.10,2013-03-02 20:24:00,
2013-03-02 12:39:00,54.5,33.0,30.13,SSE,162,2.0,7.0,45,0.00,,,0.00,weatherlink.com 1.10,2013-03-02 20:39:00,
2013-03-02 12:54:00,55.0,33.0,30.12,South,190,4.0,7.0,44,0.00,,,0.00,weatherlink.com 1.10,2013-03-02 20:54:00,
2013-03-02 13:09:00,54.6,33.0,30.11,SSE,161,2.0,5.0,44,0.00,,,0.00,weatherlink.com 1.10,2013-03-02 21:09:00,
2013-03-02 13:24:00,55.0,33.0,30.11,SSE,161,1.0,4.0,43,0.00,,,0.00,weatherlink.com 1.10,2013-03-02 21:24:00,
2013-03-02 13:39:00,56.1,32.0,30.11,SSE,161,1.0,4.0,41,0.00,,,0.00,weatherlink.com 1.10,2013-03-02 21:39:00,
2013-03-02 13:54:00,55.9,32.0,30.11,WNW,289,7.0,10.0,41,0.00,,,0.00,weatherlink.com 1.10,2013-03-02 21:54:00,
2013-03-02 14:09:00,55.5,31.0,30.11,NNW,331,4.0,9.0,40,0.00,,,0.00,weatherlink.com 1.10,2013-03-02 22:09:00,
2013-03-02 14:24:00,55.5,31.0,30.11,NNW,331,3.0,6.0,40,0.00,,,0.00,weatherlink.com 1.10,2013-03-02 22:24:00,
2013-03-02 14:39:00,55.6,31.0,30.11,NNW,331,2.0,6.0,39,0.00,,,0.00,weatherlink.com 1.10,2013-03-02 22:39:00,
2013-03-02 14:54:00,55.3,29.0,30.11,WSW,239,8.0,14.0,37,0.00,,,0.00,weatherlink.com 1.10,2013-03-02 22:54:00,
2013-03-02 15:09:00,54.6,29.0,30.10,SW,229,12.0,12.0,38,0.00,,,0.00,weatherlink.com 1.10,2013-03-02 23:09:00,
2013-03-02 15:24:00,54.6,29.0,30.10,SW,216,6.0,13.0,38,0.00,,,0.00,weatherlink.com 1.10,2013-03-02 23:24:00,
2013-03-02 15:39:00,54.2,30.0,30.10,WSW,242,4.0,13.0,39,0.00,,,0.00,weatherlink.com 1.10,2013-03-02 23:39:00,
2013-03-02 15:54:00,53.7,28.0,30.10,WSW,238,6.0,13.0,37,0.00,,,0.00,weatherlink.com 1.10,2013-03-02 23:54:00,
2013-03-02 16:09:00,53.5,28.0,30.10,SW,221,4.0,9.0,37,0.00,,,0.00,weatherlink.com 1.10,2013-03-03 00:09:00,
2013-03-02 16:24:00,53.1,27.0,30.10,SSW,211,3.0,10.0,37,0.00,,,0.00,weatherlink.com 1.10,2013-03-03 00:24:00,
2013-03-02 16:39:00,52.7,28.0,30.10,SW,215,5.0,14.0,39,0.00,,,0.00,weatherlink.com 1.10,2013-03-03 00:39:00,
2013-03-02 16:54:00,52.0,29.0,30.10,South,182,2.0,8.0,42,0.00,,,0.00,weatherlink.com 1.10,2013-03-03 00:54:00,
2013-03-02 17:09:00,51.6,29.0,30.10,SSW,213,6.0,8.0,42,0.00,,,0.00,weatherlink.com 1.10,2013-03-03 01:09:00,
2013-03-02 17:24:00,51.2,29.0,30.10,SSW,202,2.0,6.0,42,0.00,,,0.00,weatherlink.com 1.10,2013-03-03 01:24:00,
2013-03-02 17:39:00,50.9,29.0,30.10,SSW,207,4.0,6.0,43,0.00,,,0.00,weatherlink.com 1.10,2013-03-03 01:39:00,
2013-03-02 17:54:00,48.7,34.0,30.10,West,262,2.0,9.0,58,0.00,,,0.00,weatherlink.com 1.10,2013-03-03 01:54:00,
2013-03-02 18:09:00,47.4,33.0,30.11,SW,232,6.0,10.0,57,0.00,,,0.00,weatherlink.com 1.10,2013-03-03 02:09:00,
2013-03-02 18:24:00,47.8,32.0,30.11,SW,226,4.0,16.0,55,0.00,,,0.00,weatherlink.com 1.10,2013-03-03 02:24:00,
2013-03-02 18:39:00,47.3,33.0,30.11,WSW,246,3.0,6.0,58,0.00,,,0.00,weatherlink.com 1.10,2013-03-03 02:39:00,
2013-03-02 18:54:00,46.4,34.0,30.10,WSW,246,1.0,4.0,63,0.00,,,0.00,weatherlink.com 1.10,2013-03-03 02:54:00,
2013-03-02 19:09:00,45.9,34.0,30.11,WSW,246,3.0,3.0,64,0.00,,,0.00,weatherlink.com 1.10,2013-03-03 03:09:00,
2013-03-02 19:24:00,45.1,34.0,30.11,WSW,246,0.0,3.0,66,0.00,,,0.00,weatherlink.com 1.10,2013-03-03 03:24:00,
2013-03-02 19:39:00,44.8,34.0,30.11,WSW,246,1.0,3.0,67,0.00,,,0.00,weatherlink.com 1.10,2013-03-03 03:39:00,
2013-03-02 19:54:00,44.3,35.0,30.11,WSW,246,1.0,3.0,69,0.00,,,0.00,weatherlink.com 1.10,2013-03-03 03:54:00,
2013-03-02 20:09:00,44.5,34.0,30.10,WSW,246,0.0,3.0,67,0.00,,,0.00,weatherlink.com 1.10,2013-03-03 04:09:00,
2013-03-02 20:24:00,44.9,33.0,30.10,SSW,211,1.0,8.0,64,0.00,,,0.00,weatherlink.com 1.10,2013-03-03 04:24:00,
2013-03-02 20:39:00,44.9,33.0,30.10,SSW,196,1.0,6.0,64,0.00,,,0.00,weatherlink.com 1.10,2013-03-03 04:39:00,
2013-03-02 20:54:00,43.6,34.0,30.10,NNE,15,2.0,4.0,69,0.00,,,0.00,weatherlink.com 1.10,2013-03-03 04:54:00,
2013-03-02 21:09:00,43.4,33.0,30.09,SSE,151,4.0,8.0,68,0.00,,,0.00,weatherlink.com 1.10,2013-03-03 05:09:00,
2013-03-02 21:24:00,43.2,33.0,30.09,SSE,158,2.0,5.0,68,0.00,,,0.00,weatherlink.com 1.10,2013-03-03 05:24:00,
2013-03-02 21:39:00,42.6,33.0,30.09,SSE,157,2.0,6.0,68,0.00,,,0.00,weatherlink.com 1.10,2013-03-03 05:39:00,
2013-03-02 21:55:00,42.4,32.0,30.09,SSE,158,2.0,6.0,68,0.00,,,0.00,weatherlink.com 1.10,2013-03-03 05:55:00,
2013-03-02 22:10:00,42.7,32.0,30.09,SSE,163,1.0,9.0,66,0.00,,,0.00,weatherlink.com 1.10,2013-03-03 06:10:00,
2013-03-02 22:25:00,42.4,32.0,30.09,South,180,6.0,14.0,68,0.00,,,0.00,weatherlink.com 1.10,2013-03-03 06:25:00,
2013-03-02 22:40:00,41.9,32.0,30.09,South,169,5.0,10.0,69,0.00,,,0.00,weatherlink.com 1.10,2013-03-03 06:40:00,
2013-03-02 22:55:00,41.1,31.0,30.09,SSE,165,3.0,5.0,68,0.00,,,0.00,weatherlink.com 1.10,2013-03-03 06:55:00,
2013-03-02 23:10:00,40.3,32.0,30.09,SSE,165,1.0,2.0,71,0.00,,,0.00,weatherlink.com 1.10,2013-03-03 07:10:00,
2013-03-02 23:25:00,39.7,31.0,30.09,SSE,165,1.0,3.0,70,0.00,,,0.00,weatherlink.com 1.10,2013-03-03 07:25:00,
2013-03-02 23:40:00,38.9,31.0,30.09,SSE,165,2.0,4.0,72,0.00,,,0.00,weatherlink.com 1.10,2013-03-03 07:40:00,
2013-03-02 23:55:00,38.4,31.0,30.09,SSE,165,0.0,3.0,74,0.00,,,0.00,weatherlink.com 1.10,2013-03-03 07:55:00,